Latest Weather Observations for Mandurah

IDW60801

Issued at 2:05 am WST Tuesday 23 September 2014 (issued every 30 minutes, with the page automatically refreshed every 10 minutes)

About weather observations | Map of weather stations | Latest weather observations for WA | Other Formats
Station Details ID: 009977 Name: MANDURAH Lat: -32.52 Lon: 115.71 Height: 3.0 m
Data from the previous 72 hours. | See also: Recent months at Mandurah
Date/Time
WST
Temp
°C
App
Temp
°C
Dew
Point
Rel
Hum
%
Delta-T
°C
Wind Press
QNH
hPa
Press
MSL
hPa
Rain
since 9 am
mm
Dir
 
Spd
km/h
Gust
km/h
Spd
kts
Gust
kts
23/02:00am 9.7 7.5 5.3 74 2.0 ESE 6 9 3 5 1025.7 1025.7 2.4
23/01:30am 9.8 7.6 5.2 73 2.1 ESE 6 7 3 4 1025.9 1025.9 2.4
23/01:00am 10.2 8.0 5.4 72 2.2 ESE 6 7 3 4 1025.9 1025.9 2.4
23/12:30am 10.5 8.2 5.5 71 2.3 SE 7 11 4 6 1026.1 1026.1 2.4
23/12:00am 11.0 8.8 5.5 69 2.5 SE 6 9 3 5 1026.2 1026.2 2.4
 
Date/Time
WST
Temp
°C
App
Temp
°C
Dew
Point
Rel
Hum
%
Delta-T
°C
Wind Press
QNH
hPa
Press
MSL
hPa
Rain
since 9 am
mm
Dir
 
Spd
km/h
Gust
km/h
Spd
kts
Gust
kts
22/11:30pm 12.2 9.6 6.0 66 2.9 SE 9 13 5 7 1026.2 1026.2 2.4
22/11:00pm 12.7 10.2 6.5 66 2.9 SSE 9 15 5 8 1026.3 1026.3 2.4
22/10:30pm 12.9 9.2 6.3 64 3.1 SSE 15 20 8 11 1026.2 1026.2 2.4
22/10:00pm 13.1 8.9 5.8 61 3.4 SSE 17 26 9 14 1026.3 1026.3 2.4
22/09:30pm 13.5 9.2 5.4 58 3.8 S 17 24 9 13 1026.3 1026.3 2.4
22/09:00pm 14.0 9.7 5.1 55 4.1 SSE 17 28 9 15 1025.9 1025.9 2.4
22/08:30pm 14.5 11.1 6.1 57 4.0 S 13 22 7 12 1025.8 1025.8 2.4
22/08:00pm 14.8 11.4 5.9 55 4.2 S 13 24 7 13 1025.5 1025.5 2.4
22/07:30pm 15.0 11.2 5.8 54 4.4 SSW 15 22 8 12 1025.1 1025.1 2.4
22/07:00pm 15.0 11.3 6.3 56 4.2 SSW 15 24 8 13 1024.7 1024.7 2.4
22/06:30pm 15.1 12.2 6.7 57 4.1 S 11 19 6 10 1024.3 1024.3 2.4
22/06:00pm 15.3 10.8 6.3 55 4.3 S 19 28 10 15 1023.9 1023.9 2.4
22/05:30pm 15.6 11.5 6.3 54 4.5 SSW 17 28 9 15 1023.7 1023.7 2.4
22/05:00pm 15.9 11.1 5.8 51 4.8 SSW 20 30 11 16 1023.4 1023.4 2.4
22/04:30pm 16.4 12.5 7.3 55 4.5 SSW 17 26 9 14 1023.1 1023.1 2.4
22/04:00pm 16.3 11.7 6.4 52 4.8 SSW 20 32 11 17 1022.7 1022.7 2.4
22/03:30pm 16.6 12.0 6.7 52 4.9 S 20 32 11 17 1022.6 1022.6 2.4
22/03:00pm 16.9 12.3 5.5 47 5.5 SSW 19 30 10 16 1022.2 1022.2 2.4
22/02:30pm 16.6 11.5 6.1 50 5.1 SSW 22 33 12 18 1022.1 1022.1 2.4
22/02:00pm 16.8 13.0 7.4 54 4.7 SSW 17 26 9 14 1022.1 1022.1 2.4
22/01:30pm 16.5 13.6 6.6 52 4.9 S 11 20 6 11 1022.2 1022.2 2.4
22/01:00pm 16.3 13.1 7.0 54 4.6 S 13 20 7 11 1022.4 1022.4 2.4
22/12:30pm 16.5 13.5 6.1 50 5.1 S 11 19 6 10 1022.2 1022.2 2.4
22/12:00pm 16.2 12.7 5.5 49 5.1 S 13 19 7 10 1022.4 1022.4 2.4
22/11:30am 15.4 11.1 5.3 51 4.8 S 17 26 9 14 1022.5 1022.5 2.4
22/11:00am 15.4 11.6 5.6 52 4.7 SSE 15 22 8 12 1022.6 1022.6 2.4
22/10:30am 14.9 10.3 5.4 53 4.5 SSE 19 28 10 15 1022.6 1022.6 2.4
22/10:00am 14.3 10.6 6.4 59 3.8 SSE 15 26 8 14 1022.5 1022.5 2.2
22/09:30am 13.7 9.7 6.8 63 3.3 SSE 17 26 9 14 1022.3 1022.3 1.4
22/09:00am 12.8 9.3 7.0 68 2.8 SSE 15 22 8 12 1022.3 1022.3 33.6
22/08:30am 12.4 8.9 7.3 71 2.5 SSE 15 22 8 12 1022.1 1022.1 32.2
22/08:00am 11.8 8.2 6.9 72 2.3 SSE 15 24 8 13 1021.7 1021.7 31.2
22/07:30am 11.4 7.9 7.1 75 2.1 SSE 15 28 8 15 1021.1 1021.1 30.6
22/07:00am 10.7 7.1 6.8 77 1.8 SSE 15 24 8 13 1020.7 1020.7 30.4
22/06:30am 10.7 6.8 7.0 78 1.8 SSE 17 24 9 13 1020.0 1020.0 30.0
22/06:00am 10.6 6.9 7.8 83 1.3 SSE 17 32 9 17 1019.5 1019.5 29.6
22/05:30am 11.7 9.0 7.4 75 2.1 SSE 11 19 6 10 1018.9 1018.9 29.2
22/05:00am 11.2 5.3 5.7 69 2.5 SE 26 35 14 19 1018.0 1018.0 28.8
22/04:30am 11.0 5.9 7.5 79 1.7 S 24 35 13 19 1018.1 1018.1 28.6
22/04:00am 12.0 8.2 7.7 75 2.1 SSE 17 26 9 14 1017.1 1017.1 28.4
22/03:30am 12.2 8.1 7.7 74 2.2 SSE 19 28 10 15 1016.9 1016.9 28.2
22/03:00am 12.1 8.6 8.8 80 1.6 SSE 17 26 9 14 1016.7 1016.7 28.0
22/02:30am 12.2 8.8 9.0 81 1.6 S 17 22 9 12 1016.4 1016.4 27.6
22/02:00am 12.3 8.8 8.6 78 1.8 SSE 17 26 9 14 1016.3 1016.3 27.4
22/01:30am 12.6 9.5 8.7 77 1.9 S 15 28 8 15 1016.2 1016.2 27.2
22/01:00am 13.0 8.5 8.5 74 2.2 S 22 33 12 18 1015.8 1015.8 27.0
22/12:30am 13.1 8.7 9.0 76 2.1 S 22 35 12 19 1015.7 1015.7 26.6
22/12:00am 13.4 8.9 8.7 73 2.4 S 22 32 12 17 1015.2 1015.2 26.4
 
Date/Time
WST
Temp
°C
App
Temp
°C
Dew
Point
Rel
Hum
%
Delta-T
°C
Wind Press
QNH
hPa
Press
MSL
hPa
Rain
since 9 am
mm
Dir
 
Spd
km/h
Gust
km/h
Spd
kts
Gust
kts
21/11:30pm 13.6 8.4 8.7 72 2.5 S 26 39 14 21 1014.8 1014.8 26.2
21/11:00pm 13.3 8.6 9.4 77 2.0 S 24 35 13 19 1014.6 1014.6 25.8
21/10:30pm 13.0 8.9 10.0 82 1.5 S 22 33 12 18 1014.5 1014.5 25.6
21/10:00pm 13.1 9.0 10.1 82 1.5 S 22 35 12 19 1014.3 1014.3 25.2
21/09:30pm 13.2 8.4 10.2 82 1.6 S 26 41 14 22 1014.3 1014.3 24.8
21/09:00pm 13.1 8.5 11.0 87 1.1 S 26 43 14 23 1013.5 1013.5 24.4
21/08:30pm 12.9 8.3 11.1 89 0.9 S 26 33 14 18 1013.1 1013.1 24.0
21/08:16pm 12.8 7.9 11.2 90 0.8 S 28 48 15 26 1012.8 1012.8 23.8
21/08:00pm 12.7 7.8 11.4 92 0.7 S 28 41 15 22 1012.4 1012.4 23.6
21/07:33pm 12.9 7.7 11.6 92 0.7 SSE 30 50 16 27 1011.6 1011.6 23.2
21/07:30pm 12.7 7.1 11.4 92 0.7 SSE 32 48 17 26 1011.6 1011.6 23.2
21/07:00pm 12.9 7.5 12.3 96 0.3 S 32 52 17 28 1011.1 1011.1 22.8
21/06:33pm 12.7 7.8 12.7 100 0.0 S 30 50 16 27 1010.7 1010.7 22.2
21/06:30pm 12.9 8.5 12.9 100 0.0 S 28 39 15 21 1010.4 1010.4 22.2
21/06:00pm 12.8 7.5 12.6 99 0.1 S 32 43 17 23 1009.3 1009.3 21.6
21/05:46pm 12.8 3.9 12.0 95 0.4 S 50 70 27 38 1008.1 1008.1 21.2
21/05:44pm 12.7 2.7 11.9 95 0.4 S 56 70 30 38 1008.0 1008.0 21.2
21/05:30pm 13.1 7.9 12.9 99 0.1 S 32 56 17 30 1007.7 1007.7 20.8
21/05:25pm 13.1 8.7 12.9 99 0.1 S 28 48 15 26 1008.0 1008.0 20.6
21/05:00pm 13.9 13.4 13.9 100 0.0 NW 9 19 5 10 1008.1 1008.1 20.0
21/04:30pm 14.0 12.7 13.7 98 0.2 NW 13 19 7 10 1008.3 1008.3 19.0
21/04:00pm 15.0 11.4 12.9 87 1.2 NW 24 30 13 16 1007.5 1007.5 18.2
21/03:30pm 15.5 12.9 13.2 86 1.3 N 19 22 10 12 1006.9 1006.9 17.4
21/03:00pm 15.0 12.5 12.3 84 1.5 NNW 17 24 9 13 1006.8 1006.8 16.2
21/02:30pm 14.4 14.1 14.4 100 0.0 NNW 9 15 5 8 1007.3 1007.3 15.2
21/02:00pm 14.5 14.8 14.5 100 0.0 ENE 6 9 3 5 1007.3 1007.3 14.2
21/01:30pm 14.2 14.4 14.2 100 0.0 ESE 6 7 3 4 1006.3 1006.3 12.8
21/01:00pm 14.2 13.5 14.2 100 0.0 SW 11 17 6 9 1007.2 1007.2 11.2
21/12:30pm 14.2 12.3 14.2 100 0.0 W 17 24 9 13 1007.1 1007.1 9.8
21/12:00pm 14.3 13.6 14.3 100 0.0 WSW 11 17 6 9 1007.2 1007.2 8.4
21/11:30am 14.6 12.3 14.6 100 0.0 WSW 20 33 11 18 1007.0 1007.0 7.2
21/11:00am 14.4 12.6 14.4 100 0.0 SSW 17 26 9 14 1006.2 1006.2 6.0
21/10:30am 14.0 10.0 14.0 100 0.0 SW 28 39 15 21 1006.4 1006.4 5.2
21/10:00am 14.8 11.8 14.8 100 0.0 SW 24 33 13 18 1005.4 1005.4 4.0
21/09:30am 15.4 12.5 15.2 99 0.1 SW 24 41 13 22 1005.3 1005.3 2.6
21/09:08am 16.8 12.0 14.1 84 1.5 W 32 41 17 22 1005.2 1005.2 0.4
21/09:05am 18.3 12.3 15.4 83 1.7 WNW 41 48 22 26 1005.2 1005.2 0.0
21/09:00am 19.6 11.6 15.7 78 2.3 N 52 67 28 36 1003.8 1003.8 0.0
21/08:37am 19.9 12.4 14.9 73 2.9 N 48 67 26 36 1003.4 1003.4 0.0
21/08:30am 19.8 12.2 14.6 72 3.0 N 48 61 26 33 1003.3 1003.3 0.0
21/08:16am 19.7 11.9 14.1 70 3.2 N 48 69 26 37 1003.2 1003.2 0.0
21/08:00am 19.7 12.0 14.3 71 3.1 N 48 63 26 34 1003.2 1003.2 0.0
21/07:30am 19.3 11.7 13.7 70 3.2 N 46 59 25 32 1003.5 1003.5 0.0
21/07:00am 19.0 12.0 13.8 72 3.0 N 43 52 23 28 1003.9 1003.9 0.0
21/06:30am 18.6 12.3 14.5 77 2.4 NNE 41 50 22 27 1003.5 1003.5 0.0
21/06:00am 18.6 13.0 15.5 82 1.8 NNE 39 50 21 27 1003.7 1003.7 0.0
21/05:30am 18.9 13.5 16.1 84 1.7 N 39 48 21 26 1004.4 1004.4 0.0
21/05:00am 19.1 14.3 16.5 85 1.6 N 37 44 20 24 1004.8 1004.8 0.0
21/04:30am 19.0 14.0 16.0 83 1.8 N 37 48 20 26 1005.3 1005.3 0.0
21/04:00am 18.9 14.7 16.3 85 1.6 N 33 39 18 21 1005.2 1005.2 0.0
21/03:30am 19.0 15.1 16.4 85 1.6 N 32 41 17 22 1005.7 1005.7 0.0
21/03:00am 18.1 14.8 16.1 88 1.2 N 28 33 15 18 1006.0 1006.0 0.0
21/02:30am 17.8 15.7 17.2 96 0.4 NNE 24 30 13 16 1006.6 1006.6 0.0
21/02:00am 18.1 16.0 18.1 100 0.0 NNE 26 32 14 17 1007.1 1007.1 0.0
21/01:30am 18.5 17.7 18.0 97 0.3 NNE 19 24 10 13 1007.7 1007.7 0.0
21/01:00am 19.2 18.9 19.2 100 0.0 N 19 22 10 12 1007.5 1007.5 0.0
21/12:30am 19.2 18.9 19.2 100 0.0 N 19 22 10 12 1008.4 1008.4 0.0
21/12:00am 19.3 18.8 19.1 99 0.1 N 20 26 11 14 1009.2 1009.2 0.0
 
Date/Time
WST
Temp
°C
App
Temp
°C
Dew
Point
Rel
Hum
%
Delta-T
°C
Wind Press
QNH
hPa
Press
MSL
hPa
Rain
since 9 am
mm
Dir
 
Spd
km/h
Gust
km/h
Spd
kts
Gust
kts
20/11:30pm 19.3 18.9 19.3 100 0.0 N 20 26 11 14 1010.0 1010.0 0.0
20/11:00pm 19.4 18.9 19.1 98 0.2 N 20 24 11 13 1010.4 1010.4 0.0
20/10:30pm 19.6 19.0 18.8 95 0.5 N 20 26 11 14 1010.8 1010.8 0.0
20/10:00pm 19.6 18.6 18.8 95 0.5 N 22 30 12 16 1011.3 1011.3 0.0
20/09:30pm 19.4 18.7 19.4 100 0.0 N 22 28 12 15 1011.6 1011.6 0.0
20/09:00pm 19.9 19.4 19.9 100 0.0 N 22 30 12 16 1011.9 1011.9 0.0
20/08:30pm 19.9 18.9 19.6 98 0.2 N 24 32 13 17 1011.8 1011.8 0.0
20/08:00pm 19.9 18.9 18.9 94 0.6 N 22 26 12 14 1011.5 1011.5 0.0
20/07:30pm 19.8 19.0 18.5 92 0.8 N 20 24 11 13 1011.4 1011.4 0.0
20/07:00pm 20.0 19.3 18.3 90 1.1 N 19 22 10 12 1011.4 1011.4 0.0
20/06:30pm 20.2 19.2 17.6 85 1.6 N 19 22 10 12 1011.4 1011.4 0.0
20/06:00pm 21.0 18.1 16.2 74 2.9 N 26 32 14 17 1010.9 1010.9 0.0
20/05:30pm 22.1 17.6 13.7 59 4.9 N 30 37 16 20 1010.0 1010.0 0.0
20/05:00pm 21.8 21.3 17.0 74 2.9 NNE 15 19 8 10 1009.2 1009.2 0.0
20/04:30pm 22.1 22.9 16.4 70 3.5 N 7 9 4 5 1008.7 1008.7 0.0
20/04:00pm 23.1 22.0 15.4 62 4.6 W 15 22 8 12 1008.6 1008.6 0.0
20/03:30pm 23.0 20.6 16.5 67 4.0 W 24 32 13 17 1008.7 1008.7 0.0
20/03:10pm 24.7 19.4 14.2 52 6.2 NW 35 41 19 22 1008.6 1008.6 0.0
20/03:00pm 26.0 23.9 13.5 46 7.4 N 17 20 9 11 1008.4 1008.4 0.0
20/02:30pm 26.5 23.7 13.3 44 7.7 N 20 26 11 14 1008.8 1008.8 0.0
20/02:00pm 27.3 23.1 12.5 40 8.6 N 26 35 14 19 1009.2 1009.2 0.0
20/01:30pm 27.7 23.7 11.7 37 9.2 N 24 35 13 19 1009.6 1009.6 0.0
20/01:00pm 27.1 23.5 12.0 39 8.7 NNE 22 30 12 16 1010.2 1010.2 0.0
20/12:30pm 27.4 22.5 11.4 37 9.1 NNE 28 35 15 19 1010.5 1010.5 0.0
20/12:00pm 26.6 21.8 11.5 39 8.6 NNE 28 39 15 21 1011.0 1011.0 0.0
20/11:30am 26.0 21.1 11.4 40 8.3 NNE 28 37 15 20 1011.5 1011.5 0.0
20/11:00am 25.2 20.4 11.7 43 7.7 NNE 28 41 15 22 1012.0 1012.0 0.0
20/10:30am 24.3 18.8 11.9 45 7.0 NNE 32 43 17 23 1012.4 1012.4 0.0
20/10:00am 23.7 18.0 11.1 45 7.0 NNE 32 43 17 23 1012.9 1012.9 0.0
20/09:30am 22.7 16.7 10.8 47 6.6 NNE 33 43 18 23 1013.0 1013.0 0.0
20/09:00am 22.2 16.2 10.0 46 6.6 NE 32 50 17 27 1013.3 1013.3 0.0
20/08:58am 22.0 16.0 10.2 47 6.4 NE 32 50 17 27 1013.3 1013.3 0.0
20/08:30am 21.0 16.1 9.9 49 6.0 NE 26 37 14 20 1013.7 1013.7 0.0
20/08:00am 19.8 14.5 10.0 53 5.2 NE 28 39 15 21 1013.9 1013.9 0.0
20/07:30am 18.7 13.4 9.8 56 4.7 NE 28 39 15 21 1014.3 1014.3 0.0
20/07:00am 17.8 14.0 9.7 59 4.3 NE 20 30 11 16 1014.6 1014.6 0.0
20/06:30am 16.4 13.5 9.8 65 3.5 ENE 15 24 8 13 1014.7 1014.7 0.0
20/06:00am 16.0 14.8 10.3 69 3.0 NE 7 13 4 7 1014.9 1014.9 0.0
20/05:30am 15.7 14.6 10.5 71 2.7 NE 7 9 4 5 1015.2 1015.2 0.0
20/05:00am 16.2 14.4 10.9 71 2.8 ENE 11 19 6 10 1015.3 1015.3 0.0
20/04:30am 15.6 14.4 11.6 77 2.2 ENE 9 15 5 8 1015.5 1015.5 0.0
20/04:00am 14.8 14.9 11.6 81 1.7 ENE 2 7 1 4 1015.8 1015.8 0.0
20/03:30am 15.2 14.9 11.6 79 1.9 E 4 6 2 3 1016.0 1016.0 0.0
20/03:00am 15.9 15.4 12.1 78 2.1 E 6 11 3 6 1016.5 1016.5 0.0
20/02:30am 15.7 15.2 12.6 82 1.7 E 7 11 4 6 1017.0 1017.0 0.0

Other Formats:

Comma delimited format used in spreadsheet applications
http://www.bom.gov.au/fwo/IDW60801/IDW60801.94605.axf

JavaScript Object Notation format (JSON) in row-major order
http://www.bom.gov.au/fwo/IDW60801/IDW60801.94605.json